Brevik Bridge — VRHY7 — position and weather

sailwx.info

Track history (hours):
 
Tides and Currents Weather Stations Pressure Air Temp Water Temp Dewpoint Dewpoint Depression Visibility Wind Speed Wind Dir Waves Ship Positions

Brevik Bridge

Last reported at 2016-Dec-05 22:23 UTC. Time now 2016-Dec-06 17:59 UTC.
Position N 22°39' E 119°53'.

Length 268 m; draft 11.5 m.

Type: Ship (hazmat cat D). MMSI: 477866200.

Date/timePositionNaut miles runAvg speedWind from/ knotsBaromVisibWave heightAir tempDewpointWater temp
2016-Dec-05 22:23N 22°39' E 119°53'1315.7
2016-Dec-05 21:33N 22°29' E 119°44'  
2016-Dec-01 21:15N 01°16' E 104°10'1115.9
2016-Dec-01 20:33N 01°14' E 103°59'4 3.6
2016-Dec-01 19:29N 01°16' E 103°56'0 0.0
2016-Dec-01 18:33N 01°16' E 103°56'0 0.0
2016-Dec-01 17:33N 01°16' E 103°56'0 0.0
2016-Dec-01 16:33N 01°16' E 103°56'0 0.1
2016-Dec-01 15:33N 01°16' E 103°56'0 0.0
2016-Dec-01 14:33N 01°16' E 103°56'0 0.1
2016-Dec-01 13:33N 01°16' E 103°56'0 0.1
2016-Dec-01 12:33N 01°16' E 103°56'0 0.1
2016-Dec-01 11:33N 01°16' E 103°56'0 0.4
2016-Dec-01 10:33N 01°16' E 103°56'9 8.8
2016-Dec-01 09:34N 01°13' E 103°48'4 1.8
2016-Dec-01 07:15N 01°17' E 103°46'0 0.0
2016-Dec-01 06:33N 01°17' E 103°46'0 0.0
2016-Dec-01 05:30N 01°17' E 103°46'0 0.0
2016-Dec-01 04:33N 01°17' E 103°46'0 0.0
2016-Dec-01 03:27N 01°17' E 103°46'0 0.0
2016-Dec-01 00:30N 01°17' E 103°46'0 0.0
2016-Nov-30 23:21N 01°17' E 103°46'0 0.0
2016-Nov-30 22:30N 01°17' E 103°46'0 0.0
2016-Nov-30 21:30N 01°17' E 103°46'0 0.0
2016-Nov-30 20:33N 01°17' E 103°46'0 0.0
2016-Nov-30 19:21N 01°17' E 103°46'0 0.0
2016-Nov-30 18:27N 01°17' E 103°46'1 0.8
2016-Nov-30 17:33N 01°17' E 103°46'4 4.0
2016-Nov-30 16:33N 01°14' E 103°43'5510.6
2016-Nov-30 11:23N 01°35' E 102°52'1213.5
2016-Nov-30 10:30N 01°41' E 102°42'1313.6
2016-Nov-30 09:33N 01°47' E 102°30'1313.3
2016-Nov-30 08:33N 01°53' E 102°18'1513.0
2016-Nov-30 07:22N 02°02' E 102°06'  
Track history (hours):
 
Tides and Currents Weather Stations Pressure Air Temp Water Temp Dewpoint Dewpoint Depression Visibility Wind Speed Wind Dir Waves Ship Positions

Brevik Bridge

Last reported at 2016-Dec-05 22:23 UTC. Time now 2016-Dec-06 17:59 UTC.
Position N 22°39' E 119°53'.

Length 268 m; draft 11.5 m.

Type: Ship (hazmat cat D). MMSI: 477866200.

Date/timePositionNaut miles runAvg speedWind from/ knotsBaromVisibWave heightAir tempDewpointWater temp
2016-Dec-05 22:23N 22°39' E 119°53'1315.7
2016-Dec-05 21:33N 22°29' E 119°44'  
2016-Dec-01 21:15N 01°16' E 104°10'1115.9
2016-Dec-01 20:33N 01°14' E 103°59'4 3.6
2016-Dec-01 19:29N 01°16' E 103°56'0 0.0
2016-Dec-01 18:33N 01°16' E 103°56'0 0.0
2016-Dec-01 17:33N 01°16' E 103°56'0 0.0
2016-Dec-01 16:33N 01°16' E 103°56'0 0.1
2016-Dec-01 15:33N 01°16' E 103°56'0 0.0
2016-Dec-01 14:33N 01°16' E 103°56'0 0.1
2016-Dec-01 13:33N 01°16' E 103°56'0 0.1
2016-Dec-01 12:33N 01°16' E 103°56'0 0.1
2016-Dec-01 11:33N 01°16' E 103°56'0 0.4
2016-Dec-01 10:33N 01°16' E 103°56'9 8.8
2016-Dec-01 09:34N 01°13' E 103°48'4 1.8
2016-Dec-01 07:15N 01°17' E 103°46'0 0.0
2016-Dec-01 06:33N 01°17' E 103°46'0 0.0
2016-Dec-01 05:30N 01°17' E 103°46'0 0.0
2016-Dec-01 04:33N 01°17' E 103°46'0 0.0
2016-Dec-01 03:27N 01°17' E 103°46'0 0.0
2016-Dec-01 00:30N 01°17' E 103°46'0 0.0
2016-Nov-30 23:21N 01°17' E 103°46'0 0.0
2016-Nov-30 22:30N 01°17' E 103°46'0 0.0
2016-Nov-30 21:30N 01°17' E 103°46'0 0.0
2016-Nov-30 20:33N 01°17' E 103°46'0 0.0
2016-Nov-30 19:21N 01°17' E 103°46'0 0.0
2016-Nov-30 18:27N 01°17' E 103°46'1 0.8
2016-Nov-30 17:33N 01°17' E 103°46'4 4.0
2016-Nov-30 16:33N 01°14' E 103°43'5510.6
2016-Nov-30 11:23N 01°35' E 102°52'1213.5
2016-Nov-30 10:30N 01°41' E 102°42'1313.6
2016-Nov-30 09:33N 01°47' E 102°30'1313.3
2016-Nov-30 08:33N 01°53' E 102°18'1513.0
2016-Nov-30 07:22N 02°02' E 102°06'  

Dump ship's entire track history